Time;durP1;ratioP1;P1;durP2;ratioP2;P2;SDS_P1;SDS_P2;PMS_P1;PMS_P2;Temp;Humidity;BMP_temperature;BMP_pressure;BME280_temperature;BME280_humidity;BME280_pressure;Samples;Min_cycle;Max_cycle;Signal;HPM_P1;HPM_P2
2021/11/28 00:02:08;;;;;;;16.43;14.40;;;;;;;5.14;54.04;95895.81;8217153;28;20227;-83
2021/11/28 00:06:19;;;;;;;29.37;22.97;;;;;;;5.38;54.14;95916.72;8249486;28;20297;-84
2021/11/28 00:10:42;;;;;;;28.20;22.77;;;;;;;5.02;55.28;95912.72;8249484;28;20458;-84
2021/11/28 00:14:53;;;;;;;16.20;14.23;;;;;;;4.86;54.99;95923.00;8249199;28;20241;-83
2021/11/28 00:18:56;;;;;;;15.93;12.50;;;;;;;4.18;57.19;95923.97;8249197;28;20245;-83
2021/11/28 00:22:59;;;;;;;13.87;12.50;;;;;;;3.42;60.28;95932.03;8249194;28;20234;-83
2021/11/28 00:27:02;;;;;;;27.00;24.17;;;;;;;3.85;58.69;95929.91;8217652;28;20231;-84
2021/11/28 00:31:07;;;;;;;40.30;33.53;;;;;;;4.33;57.11;95924.94;8217639;28;20238;-83
2021/11/28 00:35:10;;;;;;;12.90;10.97;;;;;;;4.78;56.39;95941.38;8217622;28;20241;-84
2021/11/28 00:39:14;;;;;;;47.00;36.53;;;;;;;4.55;56.15;95946.88;8217165;28;20424;-83
2021/11/28 00:43:18;;;;;;;19.03;16.97;;;;;;;4.48;57.05;95952.31;8216910;28;20239;-84
2021/11/28 00:47:23;;;;;;;22.00;16.70;;;;;;;4.55;56.99;95952.00;8216633;28;20249;-84
2021/11/28 00:51:37;;;;;;;12.90;11.13;;;;;;;4.86;56.31;95940.97;8217165;28;20243;-84
2021/11/28 00:55:40;;;;;;;17.10;12.60;;;;;;;4.91;56.05;95931.25;8218620;28;20495;-85
2021/11/28 00:59:43;;;;;;;15.97;11.63;;;;;;;4.97;55.87;95928.38;8227358;28;20242;-85
2021/11/28 01:03:48;;;;;;;11.53;8.53;;;;;;;5.08;54.89;95920.06;8227025;28;20246;-84
2021/11/28 01:07:51;;;;;;;9.43;8.33;;;;;;;5.14;54.55;95922.31;8226880;28;20241;-84
2021/11/28 01:11:54;;;;;;;10.40;8.40;;;;;;;5.11;54.69;95912.22;8227230;28;20273;-84
2021/11/28 01:15:57;;;;;;;9.60;8.00;;;;;;;5.00;54.55;95906.84;8226986;28;20533;-84
2021/11/28 01:20:01;;;;;;;9.97;7.97;;;;;;;5.15;54.55;95910.31;8227163;28;20242;-85
2021/11/28 01:24:06;;;;;;;8.73;7.70;;;;;;;4.87;54.85;95907.53;8226586;28;20238;-84
2021/11/28 01:28:09;;;;;;;10.83;8.33;;;;;;;4.62;55.99;95904.63;8226728;28;20567;-85
2021/11/28 01:32:13;;;;;;;9.37;8.37;;;;;;;4.91;55.05;95897.91;8227044;28;20238;-85
2021/11/28 01:36:18;;;;;;;9.27;8.27;;;;;;;4.98;54.75;95896.66;8228805;28;20254;-84
2021/11/28 01:40:23;;;;;;;9.83;8.70;;;;;;;4.99;54.46;95902.63;8229077;28;20258;-85
2021/11/28 01:44:27;;;;;;;12.33;9.33;;;;;;;4.93;54.67;95898.69;8228307;28;20559;-85
2021/11/28 01:48:30;;;;;;;12.23;9.00;;;;;;;4.97;55.00;95897.59;8227143;28;20198;-85
2021/11/28 01:52:36;;;;;;;10.13;8.67;;;;;;;5.01;54.47;95905.97;8226225;28;20241;-85
2021/11/28 01:56:43;;;;;;;10.33;8.60;;;;;;;4.89;54.81;95908.28;8226449;28;20338;-85
2021/11/28 02:00:49;;;;;;;11.47;9.03;;;;;;;4.99;54.19;95906.03;8226540;28;20245;-85
2021/11/28 02:04:54;;;;;;;9.87;8.50;;;;;;;5.06;54.38;95909.91;8226154;28;20262;-85
2021/11/28 02:08:59;;;;;;;12.23;9.03;;;;;;;4.98;53.76;95912.06;8221613;28;20239;-85
2021/11/28 02:13:02;;;;;;;10.30;8.40;;;;;;;4.80;54.27;95911.34;8221058;28;20242;-85
2021/11/28 02:17:05;;;;;;;13.10;8.17;;;;;;;4.93;54.26;95910.66;8221137;28;20314;-85
2021/11/28 02:21:11;;;;;;;9.10;8.17;;;;;;;4.92;54.46;95907.28;8220528;28;20246;-84
2021/11/28 02:25:15;;;;;;;10.60;8.80;;;;;;;5.01;54.55;95905.97;8220898;28;20235;-85
2021/11/28 02:29:18;;;;;;;10.40;8.67;;;;;;;4.95;54.01;95901.13;8220937;28;20238;-86
2021/11/28 02:33:21;;;;;;;10.53;9.20;;;;;;;4.94;54.30;95900.31;8220765;28;20238;-83
2021/11/28 02:37:26;;;;;;;12.00;9.20;;;;;;;4.92;54.49;95903.88;8220541;28;20481;-83
2021/11/28 02:41:29;;;;;;;10.57;8.93;;;;;;;4.77;54.64;95908.94;8219647;28;20568;-82
2021/11/28 02:45:34;;;;;;;11.80;9.50;;;;;;;4.80;55.01;95903.66;8221308;28;20235;-83
2021/11/28 02:49:37;;;;;;;12.53;9.77;;;;;;;4.82;54.80;95898.44;8220099;28;20342;-83
2021/11/28 02:53:42;;;;;;;10.40;9.30;;;;;;;4.84;54.70;95894.88;8219541;28;20242;-82
2021/11/28 02:57:45;;;;;;;10.00;9.00;;;;;;;4.80;54.62;95887.44;8219439;28;20445;-83
2021/11/28 03:01:49;;;;;;;11.23;9.67;;;;;;;4.76;54.79;95893.63;8218991;28;20439;-84
2021/11/28 03:05:52;;;;;;;11.40;10.17;;;;;;;4.61;55.16;95895.28;8219437;28;20242;-83
2021/11/28 03:09:57;;;;;;;10.77;9.13;;;;;;;4.60;55.86;95899.56;8219523;28;20257;-83
2021/11/28 03:14:00;;;;;;;10.50;9.40;;;;;;;4.83;54.68;95900.91;8219221;28;20238;-83
2021/11/28 03:18:04;;;;;;;10.73;9.63;;;;;;;4.80;54.75;95903.66;8218835;28;20238;-83
2021/11/28 03:22:08;;;;;;;10.23;9.23;;;;;;;4.77;54.93;95898.66;8225886;28;20526;-84
2021/11/28 03:26:15;;;;;;;10.27;9.17;;;;;;;4.81;54.85;95902.72;8218598;28;20534;-84
2021/11/28 03:30:19;;;;;;;10.50;9.30;;;;;;;4.74;54.58;95895.44;8218665;28;20234;-84
2021/11/28 03:34:23;;;;;;;11.37;9.33;;;;;;;4.66;54.95;95889.00;8218176;28;20250;-82
2021/11/28 03:38:26;;;;;;;11.97;9.47;;;;;;;4.73;54.99;95888.69;8218583;28;20243;-83
2021/11/28 03:42:31;;;;;;;9.80;8.77;;;;;;;4.79;54.93;95881.47;8218281;28;20246;-82
2021/11/28 03:46:34;;;;;;;12.37;9.20;;;;;;;4.75;54.62;95879.16;8218065;28;20377;-81
2021/11/28 03:50:37;;;;;;;10.33;9.33;;;;;;;4.42;55.99;95878.31;8217938;28;20238;-81
2021/11/28 03:54:40;;;;;;;11.67;9.50;;;;;;;4.49;56.05;95892.47;8218006;28;20242;-82
2021/11/28 03:58:45;;;;;;;12.53;9.77;;;;;;;4.42;56.40;95895.44;8217814;28;20239;-82
2021/11/28 04:02:48;;;;;;;9.97;8.97;;;;;;;4.38;56.33;95896.50;8217455;28;20242;-82
2021/11/28 04:06:51;;;;;;;10.07;9.07;;;;;;;4.47;56.45;95888.31;8217450;28;20297;-82
2021/11/28 04:10:54;;;;;;;10.27;9.17;;;;;;;4.11;57.50;95892.75;8217446;28;20254;-82
2021/11/28 04:14:59;;;;;;;10.90;9.40;;;;;;;3.90;58.47;95889.56;8217637;28;20235;-82
2021/11/28 04:19:02;;;;;;;9.03;8.10;;;;;;;4.24;57.70;95895.47;8217268;28;20234;-82
2021/11/28 04:23:05;;;;;;;10.00;9.00;;;;;;;4.55;57.16;95904.13;8216778;28;20405;-82
2021/11/28 04:27:08;;;;;;;8.93;8.03;;;;;;;4.68;56.77;95896.59;8216309;28;20428;-82
2021/11/28 04:31:13;;;;;;;9.03;8.13;;;;;;;4.56;56.77;95890.41;8215988;28;20439;-81
2021/11/28 04:35:16;;;;;;;8.80;7.50;;;;;;;4.61;56.93;95885.88;8216550;28;20298;-83
2021/11/28 04:39:19;;;;;;;10.50;8.10;;;;;;;4.75;56.65;95887.66;8216383;28;20404;-82
2021/11/28 04:43:22;;;;;;;10.17;8.20;;;;;;;4.13;58.16;95889.25;8216629;28;20270;-83
2021/11/28 04:47:27;;;;;;;10.03;6.90;;;;;;;4.26;58.27;95887.72;8216735;28;20253;-83
2021/11/28 04:51:30;;;;;;;10.47;7.20;;;;;;;4.43;57.50;95886.84;8216694;28;20227;-82
2021/11/28 04:55:34;;;;;;;7.53;6.80;;;;;;;4.44;57.60;95891.06;8216272;28;20241;-82
2021/11/28 04:59:37;;;;;;;7.77;6.97;;;;;;;4.44;57.72;95884.19;8215961;28;20526;-82
2021/11/28 05:03:41;;;;;;;7.67;6.97;;;;;;;4.70;57.45;95876.81;8216370;28;20241;-82
2021/11/28 05:07:44;;;;;;;8.17;7.17;;;;;;;4.76;57.09;95876.50;8216150;28;20245;-82
2021/11/28 05:11:47;;;;;;;10.57;7.70;;;;;;;4.51;57.42;95877.00;8215853;28;20239;-83
2021/11/28 05:15:50;;;;;;;7.77;6.80;;;;;;;4.38;58.38;95876.00;8216128;28;20434;-82
2021/11/28 05:19:55;;;;;;;7.93;7.17;;;;;;;4.43;58.36;95867.16;8216137;28;20246;-82
2021/11/28 05:23:59;;;;;;;6.93;6.23;;;;;;;4.54;57.94;95858.91;8216265;28;20235;-82
2021/11/28 05:28:02;;;;;;;9.63;6.77;;;;;;;4.73;57.46;95852.78;8215975;28;20235;-82
2021/11/28 05:32:06;;;;;;;8.40;6.93;;;;;;;4.74;56.89;95849.28;8216193;28;20441;-83
2021/11/28 05:36:10;;;;;;;7.80;6.83;;;;;;;4.74;56.90;95870.66;8215439;28;20234;-83
2021/11/28 05:40:14;;;;;;;7.93;6.67;;;;;;;4.75;57.06;95874.03;8215943;28;20250;-83
2021/11/28 05:44:18;;;;;;;8.27;7.37;;;;;;;4.70;56.45;95877.69;8220388;28;20246;-83
2021/11/28 05:48:21;;;;;;;8.10;7.30;;;;;;;4.75;56.84;95879.97;8221493;28;20486;-82
2021/11/28 05:52:25;;;;;;;8.43;7.10;;;;;;;4.94;56.83;95889.25;8222024;28;20386;-82
2021/11/28 05:56:29;;;;;;;8.20;7.27;;;;;;;4.87;56.95;95894.72;8221398;28;20330;-82
2021/11/28 06:00:32;;;;;;;7.60;6.80;;;;;;;4.58;57.94;95887.75;8221506;28;20239;-82
2021/11/28 06:04:35;;;;;;;9.00;7.17;;;;;;;4.48;57.31;95895.13;8220952;28;20254;-82
2021/11/28 06:08:41;;;;;;;8.20;7.10;;;;;;;4.82;56.88;95888.19;8222456;28;20562;-82
2021/11/28 06:12:44;;;;;;;8.40;7.03;;;;;;;4.89;57.19;95905.72;8220904;28;20560;-83
2021/11/28 06:16:47;;;;;;;8.33;7.43;;;;;;;4.75;57.08;95899.69;8220530;28;20278;-82
2021/11/28 06:20:50;;;;;;;10.77;7.03;;;;;;;4.93;56.80;95906.38;8220643;28;20239;-82
2021/11/28 06:24:54;;;;;;;7.83;7.07;;;;;;;4.92;56.68;95909.03;8220441;28;20234;-83
2021/11/28 06:28:58;;;;;;;8.63;7.07;;;;;;;5.01;57.12;95918.78;8220398;28;20245;-82
2021/11/28 06:33:01;;;;;;;8.33;7.20;;;;;;;5.00;57.59;95927.38;8220267;28;20250;-82
2021/11/28 06:37:04;;;;;;;8.07;6.73;;;;;;;5.00;56.99;95928.19;8220150;28;20433;-84
2021/11/28 06:41:09;;;;;;;8.37;6.80;;;;;;;4.95;57.50;95919.09;8235053;28;20235;-84
2021/11/28 06:45:13;;;;;;;7.73;6.93;;;;;;;5.04;56.89;95918.59;8220123;28;20239;-84
2021/11/28 06:49:21;;;;;;;10.57;6.80;;;;;;;5.13;57.08;95918.09;8219685;28;20231;-84
2021/11/28 06:53:24;;;;;;;8.83;6.70;;;;;;;5.08;57.11;95925.22;8217759;28;20246;-82
2021/11/28 06:57:29;;;;;;;7.17;6.47;;;;;;;5.08;57.01;95922.66;8219954;28;20425;-83
2021/11/28 07:01:32;;;;;;;9.40;7.80;;;;;;;5.09;57.00;95930.25;8219106;28;20245;-82
2021/11/28 07:05:36;;;;;;;12.63;7.70;;;;;;;5.03;57.14;95929.78;8219139;28;20561;-82
2021/11/28 07:09:39;;;;;;;8.77;7.33;;;;;;;5.10;57.19;95933.66;8219127;28;20253;-84
2021/11/28 07:13:44;;;;;;;8.77;7.27;;;;;;;5.14;57.53;95932.59;8219268;28;20242;-84
2021/11/28 07:17:47;;;;;;;10.63;8.13;;;;;;;4.94;57.80;95936.22;8218363;28;20239;-84
2021/11/28 07:21:50;;;;;;;9.80;7.67;;;;;;;5.06;57.92;95942.44;8218848;28;20243;-83
2021/11/28 07:25:53;;;;;;;8.10;7.30;;;;;;;4.86;57.73;95943.53;8218372;28;20311;-81
2021/11/28 07:30:00;;;;;;;8.67;7.77;;;;;;;4.75;58.60;95946.66;8218244;28;20234;-82
2021/11/28 07:34:03;;;;;;;11.67;7.60;;;;;;;5.06;57.94;95943.28;8218498;28;20249;-83
2021/11/28 07:38:07;;;;;;;9.60;8.03;;;;;;;4.94;57.74;95940.53;8225711;28;20302;-83
2021/11/28 07:42:10;;;;;;;9.60;7.90;;;;;;;5.11;57.96;95940.44;8218089;28;20238;-83
2021/11/28 07:46:15;;;;;;;10.27;7.57;;;;;;;5.20;57.21;95941.69;8218010;28;20302;-83
2021/11/28 07:50:18;;;;;;;9.17;8.33;;;;;;;4.97;58.30;95953.19;8217142;28;20294;-85
2021/11/28 07:54:24;;;;;;;9.53;8.03;;;;;;;5.11;58.20;95957.59;8219129;28;20245;-84
2021/11/28 07:58:29;;;;;;;8.63;7.70;;;;;;;5.45;57.36;95956.56;8223024;28;20471;-87
2021/11/28 08:02:35;;;;;;;8.33;7.53;;;;;;;5.41;57.50;95949.94;8207461;28;20538;-86
2021/11/28 08:06:39;;;;;;;9.10;7.67;;;;;;;5.54;56.94;95947.50;8215428;28;20561;-82
2021/11/28 08:10:42;;;;;;;10.90;8.73;;;;;;;5.65;57.14;95952.84;8201690;28;20238;-83
2021/11/28 08:14:45;;;;;;;9.17;8.17;;;;;;;5.62;57.02;95942.78;8202241;28;20247;-83
2021/11/28 08:18:50;;;;;;;10.57;8.57;;;;;;;5.48;57.50;95940.97;8199465;28;20245;-82
2021/11/28 08:22:54;;;;;;;12.03;9.70;;;;;;;5.26;57.68;95939.59;8206177;28;20255;-82
2021/11/28 08:26:57;;;;;;;11.37;10.10;;;;;;;5.47;57.54;95929.88;8186311;28;20244;-82
2021/11/28 08:31:01;;;;;;;12.43;9.70;;;;;;;5.61;57.29;95943.66;8185550;28;20509;-83
2021/11/28 08:35:11;;;;;;;10.40;8.63;;;;;;;5.56;57.46;95937.94;8190500;28;20226;-83
2021/11/28 08:39:15;;;;;;;11.30;9.00;;;;;;;5.75;56.90;95938.59;8201850;28;20234;-85
2021/11/28 08:43:18;;;;;;;10.60;8.90;;;;;;;5.87;57.11;95935.28;8199228;28;20420;-85
2021/11/28 08:47:21;;;;;;;12.53;10.13;;;;;;;5.74;57.19;95942.06;8199937;28;20549;-85
2021/11/28 08:51:27;;;;;;;10.93;9.40;;;;;;;5.84;56.66;95947.47;8201032;28;20234;-84
2021/11/28 08:55:33;;;;;;;10.93;9.80;;;;;;;5.96;56.56;95943.41;8202018;28;20258;-85
2021/11/28 08:59:36;;;;;;;13.80;10.43;;;;;;;5.94;56.23;95953.75;8216067;28;20230;-86
2021/11/28 09:03:40;;;;;;;12.30;9.90;;;;;;;5.81;56.86;95958.78;8215432;28;20245;-85
2021/11/28 09:07:45;;;;;;;10.33;9.33;;;;;;;5.80;56.81;95971.69;8215333;28;20246;-85
2021/11/28 09:11:50;;;;;;;12.83;11.53;;;;;;;5.62;57.52;95964.13;8215946;28;20239;-85
2021/11/28 09:15:54;;;;;;;12.20;10.90;;;;;;;5.57;58.22;95960.97;8215146;28;20231;-85
2021/11/28 09:20:10;;;;;;;13.60;11.87;;;;;;;5.83;57.46;95959.50;8229053;28;20506;-85
2021/11/28 09:24:35;;;;;;;10.97;9.87;;;;;;;5.73;57.26;95953.25;8223110;28;20272;-85
2021/11/28 09:28:39;;;;;;;11.53;9.30;;;;;;;5.96;56.84;95957.09;8222793;28;20320;-86
2021/11/28 09:32:42;;;;;;;12.60;9.87;;;;;;;6.09;56.81;95962.34;8223176;28;20262;-89
2021/11/28 09:36:46;;;;;;;11.17;10.07;;;;;;;6.09;57.49;95964.91;8222486;28;20583;-86
2021/11/28 09:40:51;;;;;;;14.27;11.50;;;;;;;5.99;57.11;95958.66;8222910;28;20409;-87
2021/11/28 09:44:54;;;;;;;11.67;10.43;;;;;;;6.03;57.33;95966.09;8228188;28;20429;-88
2021/11/28 09:48:59;;;;;;;12.50;11.07;;;;;;;6.11;57.28;95964.81;8229127;28;20255;-88
2021/11/28 09:53:03;;;;;;;12.90;10.23;;;;;;;6.20;56.82;95970.25;8224831;28;20238;-85
2021/11/28 09:57:12;;;;;;;14.87;11.10;;;;;;;6.24;57.09;95958.88;8229737;28;20241;-87
2021/11/28 10:01:15;;;;;;;13.37;11.60;;;;;;;6.23;57.05;95958.97;8222679;28;20245;-94
2021/11/28 10:05:19;;;;;;;13.43;12.13;;;;;;;6.21;57.23;95960.81;8222293;28;20323;-89
2021/11/28 10:09:22;;;;;;;12.17;10.53;;;;;;;6.26;56.69;95948.50;8221472;28;20550;-87
2021/11/28 10:13:27;;;;;;;12.93;10.50;;;;;;;6.23;56.86;95946.94;8221283;28;20265;-84
2021/11/28 10:17:32;;;;;;;12.87;10.50;;;;;;;6.23;57.36;95946.94;8221336;28;20442;-85
2021/11/28 10:21:36;;;;;;;10.97;9.87;;;;;;;6.25;57.29;95942.53;8220476;28;20250;-85
2021/11/28 10:25:39;;;;;;;12.27;9.67;;;;;;;6.33;56.90;95939.50;8220748;28;20325;-88
2021/11/28 10:29:44;;;;;;;12.57;10.50;;;;;;;6.28;57.00;95936.38;8219433;28;20392;-85
2021/11/28 10:33:48;;;;;;;11.50;10.40;;;;;;;6.20;57.14;95939.41;8219802;28;20234;-86
2021/11/28 10:37:53;;;;;;;12.30;8.93;;;;;;;6.21;57.33;95933.34;8220535;28;20239;-85
2021/11/28 10:41:59;;;;;;;10.97;9.87;;;;;;;6.23;57.26;95923.00;8219814;28;20246;-90
2021/11/28 10:46:04;;;;;;;10.40;9.40;;;;;;;6.33;56.72;95930.97;8217851;28;20504;-84
2021/11/28 10:50:13;;;;;;;11.60;9.97;;;;;;;6.34;56.95;95920.59;8218780;28;20237;-82
2021/11/28 10:54:30;;;;;;;13.20;11.90;;;;;;;6.33;57.60;95924.09;8218926;28;20230;-85
2021/11/28 10:58:35;;;;;;;14.03;12.17;;;;;;;6.25;57.07;95916.81;8224781;28;20229;-84
2021/11/28 11:02:42;;;;;;;14.23;12.80;;;;;;;6.29;58.07;95921.81;8251884;28;20234;-85
2021/11/28 11:06:45;;;;;;;14.70;13.17;;;;;;;6.30;57.95;95916.53;8245944;28;20235;-89
2021/11/28 11:10:51;;;;;;;13.03;11.73;;;;;;;6.39;57.46;95918.56;8227195;28;20376;-85
2021/11/28 11:14:56;;;;;;;24.23;17.80;;;;;;;6.40;57.49;95916.84;8226452;28;20277;-86
2021/11/28 11:19:28;;;;;;;15.37;13.83;;;;;;;6.40;57.35;95919.41;8218946;28;20245;-87
2021/11/28 11:23:35;;;;;;;12.87;11.57;;;;;;;6.44;57.56;95911.41;8218239;28;20227;-85
2021/11/28 11:27:39;;;;;;;12.13;10.07;;;;;;;6.45;57.79;95915.66;8218579;28;20309;-84
2021/11/28 11:31:56;;;;;;;10.63;9.50;;;;;;;6.60;57.37;95911.28;8217899;28;20253;-85
2021/11/28 11:36:01;;;;;;;11.80;10.63;;;;;;;6.55;56.91;95917.63;8217582;28;20249;-85
2021/11/28 11:40:09;;;;;;;13.50;11.70;;;;;;;6.48;57.22;95922.34;8217874;28;20564;-86
2021/11/28 11:44:16;;;;;;;14.80;13.23;;;;;;;6.56;57.44;95919.31;8210267;28;20239;-86
2021/11/28 11:48:20;;;;;;;15.33;13.07;;;;;;;6.69;57.31;95922.78;8217422;28;20239;-84
2021/11/28 11:52:24;;;;;;;14.40;12.57;;;;;;;6.51;57.39;95916.16;8216566;28;20358;-84
2021/11/28 11:56:28;;;;;;;15.40;12.93;;;;;;;6.45;57.05;95919.94;8217465;28;20309;-84
2021/11/28 12:00:35;;;;;;;11.77;10.10;;;;;;;6.50;57.32;95924.81;8217366;28;20302;-85
2021/11/28 12:04:43;;;;;;;10.30;9.30;;;;;;;6.67;56.89;95931.50;8244843;28;20257;-84
2021/11/28 12:08:52;;;;;;;12.27;10.97;;;;;;;6.66;56.75;95915.22;8248721;28;20238;-85
2021/11/28 12:12:55;;;;;;;11.20;10.10;;;;;;;6.73;56.60;95911.38;8248920;28;20238;-89
2021/11/28 12:16:59;;;;;;;11.33;10.13;;;;;;;6.81;57.07;95916.84;8248782;28;20492;-84
2021/11/28 12:21:04;;;;;;;12.80;11.50;;;;;;;6.69;57.04;95912.47;8247358;28;20233;-86
2021/11/28 12:25:41;;;;;;;11.17;10.07;;;;;;;6.69;56.76;95927.91;8214798;28;20223;-85
2021/11/28 12:29:55;;;;;;;12.07;10.90;;;;;;;6.68;57.16;95925.44;8214432;28;20249;-87
2021/11/28 12:34:03;;;;;;;12.60;10.27;;;;;;;6.55;57.25;95922.78;8216502;28;20294;-86
2021/11/28 12:38:12;;;;;;;11.40;9.70;;;;;;;6.62;56.68;95924.88;8215854;28;20410;-86
2021/11/28 12:42:21;;;;;;;9.87;8.87;;;;;;;6.76;56.32;95920.63;8213630;28;20234;-86
2021/11/28 12:46:43;;;;;;;10.87;9.33;;;;;;;6.70;56.44;95921.88;8214697;28;20234;-87
2021/11/28 12:51:01;;;;;;;12.60;10.10;;;;;;;6.78;56.84;95918.81;8219130;28;20238;-85
2021/11/28 12:55:18;;;;;;;11.40;10.30;;;;;;;6.69;57.73;95920.19;8227117;28;20245;-83
2021/11/28 12:59:23;;;;;;;9.27;8.37;;;;;;;6.78;57.82;95929.94;8220033;28;20250;-86
2021/11/28 13:03:26;;;;;;;8.70;7.90;;;;;;;6.76;57.78;95924.06;8220700;28;20247;-86
2021/11/28 13:07:35;;;;;;;8.43;7.63;;;;;;;6.75;57.38;95926.72;8220865;28;20238;-86
2021/11/28 13:11:38;;;;;;;9.83;8.37;;;;;;;6.77;57.70;95935.97;8237474;28;20230;-86
2021/11/28 13:15:48;;;;;;;13.37;9.10;;;;;;;6.70;57.71;95933.88;8247566;28;20231;-85
2021/11/28 13:19:54;;;;;;;10.70;9.30;;;;;;;6.78;57.99;95934.25;8247419;28;20253;-86
2021/11/28 13:23:59;;;;;;;10.47;9.37;;;;;;;6.69;58.37;95942.53;8242651;28;20367;-86
2021/11/28 13:28:10;;;;;;;10.97;9.07;;;;;;;6.69;57.75;95930.50;8239044;28;20242;-84
2021/11/28 13:32:16;;;;;;;9.10;8.10;;;;;;;6.76;58.25;95941.22;8254312;28;20233;-86
2021/11/28 13:36:21;;;;;;;11.83;10.63;;;;;;;6.64;57.89;95929.94;8261838;28;20556;-86
2021/11/28 13:40:24;;;;;;;11.00;9.80;;;;;;;6.74;58.14;95932.75;8253798;28;20245;-86
2021/11/28 13:44:29;;;;;;;10.73;8.83;;;;;;;6.75;57.53;95929.28;8254043;28;20333;-86
2021/11/28 13:48:45;;;;;;;9.80;8.70;;;;;;;6.77;57.31;95932.59;8240750;28;20246;-86
2021/11/28 13:52:48;;;;;;;12.33;9.30;;;;;;;6.73;57.43;95944.00;8250039;28;20238;-86
2021/11/28 13:56:53;;;;;;;12.27;11.07;;;;;;;6.72;57.82;95937.19;8249230;28;20261;-86
2021/11/28 14:01:05;;;;;;;9.00;7.87;;;;;;;6.68;57.90;95948.59;8249046;28;20248;-86
2021/11/28 14:05:23;;;;;;;8.03;6.50;;;;;;;6.65;57.71;95941.88;8221558;28;20552;-86
2021/11/28 14:09:26;;;;;;;8.63;7.30;;;;;;;6.61;58.06;95940.44;8271601;28;20556;-87
2021/11/28 14:13:30;;;;;;;9.53;8.60;;;;;;;6.68;57.60;95940.88;8288360;28;20454;-86
2021/11/28 14:17:34;;;;;;;12.03;10.83;;;;;;;6.63;57.90;95944.56;8255318;28;20540;-86
2021/11/28 14:21:39;;;;;;;12.47;11.23;;;;;;;6.67;58.09;95937.47;8226238;28;20318;-86
2021/11/28 14:25:45;;;;;;;14.30;11.77;;;;;;;6.71;57.56;95944.09;8223265;28;20239;-86
2021/11/28 14:30:00;;;;;;;10.60;9.37;;;;;;;6.75;57.57;95952.44;8221166;28;20301;-86
2021/11/28 14:34:03;;;;;;;10.20;8.30;;;;;;;6.67;57.67;95950.34;8248621;28;20264;-86
2021/11/28 14:38:16;;;;;;;9.53;8.07;;;;;;;6.74;56.99;95955.91;8221370;28;20249;-86
2021/11/28 14:42:21;;;;;;;10.37;8.23;;;;;;;6.68;57.54;95954.53;8222259;28;20565;-86
2021/11/28 14:46:27;;;;;;;8.23;7.40;;;;;;;6.71;57.89;95956.13;8221891;28;20436;-86
2021/11/28 14:50:30;;;;;;;8.77;7.87;;;;;;;6.67;57.41;95954.66;8221437;28;20330;-86
2021/11/28 14:54:36;;;;;;;11.07;9.17;;;;;;;6.62;57.90;95953.16;8220746;28;20527;-86
2021/11/28 14:58:44;;;;;;;10.00;9.00;;;;;;;6.60;57.76;95951.63;8251480;28;20236;-86
2021/11/28 15:02:48;;;;;;;9.50;8.20;;;;;;;6.69;58.17;95958.78;8249839;28;20250;-86
2021/11/28 15:06:58;;;;;;;9.03;7.87;;;;;;;6.65;57.69;95957.31;8252526;28;20238;-86
2021/11/28 15:11:03;;;;;;;9.37;8.20;;;;;;;6.55;58.07;95953.63;8247445;28;20234;-86
2021/11/28 15:15:10;;;;;;;10.67;8.93;;;;;;;6.53;58.18;95955.47;8240850;28;20241;-85
2021/11/28 15:19:15;;;;;;;8.67;7.77;;;;;;;6.56;57.68;95952.72;8253737;28;20226;-85
2021/11/28 15:23:18;;;;;;;8.70;7.80;;;;;;;6.65;57.68;95963.28;8253956;28;20250;-85
2021/11/28 15:27:23;;;;;;;13.27;9.20;;;;;;;6.61;57.58;95961.81;8254991;28;20238;-85
2021/11/28 15:31:27;;;;;;;11.27;10.07;;;;;;;6.71;57.84;95963.84;8254611;28;20285;-86
2021/11/28 15:35:32;;;;;;;18.00;11.67;;;;;;;6.68;57.58;95969.16;8254774;28;20226;-85
2021/11/28 15:39:35;;;;;;;13.27;9.90;;;;;;;6.58;57.93;95954.28;8251434;28;20237;-85
2021/11/28 15:43:39;;;;;;;14.43;10.47;;;;;;;6.63;58.18;95966.88;8250311;28;20257;-85
2021/11/28 15:47:43;;;;;;;14.10;11.77;;;;;;;6.70;57.98;95975.03;8249722;28;20376;-86
2021/11/28 15:51:46;;;;;;;13.20;11.20;;;;;;;6.68;57.93;95975.13;8250589;28;20241;-87
2021/11/28 15:55:50;;;;;;;15.70;12.07;;;;;;;6.65;58.14;95976.16;8250535;28;20245;-86
2021/11/28 15:59:55;;;;;;;22.50;19.60;;;;;;;6.54;58.01;95978.53;8251087;28;20276;-87
2021/11/28 16:03:58;;;;;;;20.53;17.93;;;;;;;6.64;58.19;95978.81;8258322;28;20439;-86
2021/11/28 16:08:01;;;;;;;16.60;14.80;;;;;;;6.64;58.38;95986.53;8252115;28;20241;-85
2021/11/28 16:12:05;;;;;;;14.23;12.77;;;;;;;6.64;57.80;95989.09;8250188;28;20490;-87
2021/11/28 16:16:10;;;;;;;12.50;11.20;;;;;;;6.70;57.78;95972.47;8250112;28;20248;-86
2021/11/28 16:20:14;;;;;;;12.20;10.88;;;;;;;6.88;57.33;95996.25;8249959;28;20419;-86
2021/11/28 16:24:17;;;;;;;11.50;10.40;;;;;;;6.64;58.05;95996.81;8245384;28;20243;-85
2021/11/28 16:28:20;;;;;;;15.80;13.70;;;;;;;6.55;58.43;95995.63;8219421;28;20238;-86
2021/11/28 16:32:26;;;;;;;18.93;14.93;;;;;;;6.64;57.76;96000.22;8216877;28;20494;-86
2021/11/28 16:36:30;;;;;;;12.40;11.03;;;;;;;6.59;58.06;95998.84;8216375;28;20258;-85
2021/11/28 16:40:34;;;;;;;12.97;9.53;;;;;;;6.53;58.65;96002.63;8215388;28;20231;-85
2021/11/28 16:44:37;;;;;;;52.37;32.13;;;;;;;6.44;58.66;96003.16;8216776;28;20282;-85
2021/11/28 16:48:42;;;;;;;19.63;15.50;;;;;;;6.33;58.90;96005.53;8216099;28;20231;-85
2021/11/28 16:52:45;;;;;;;11.80;10.17;;;;;;;6.50;58.24;96005.34;8216289;28;20222;-85
2021/11/28 16:56:53;;;;;;;11.73;9.60;;;;;;;6.55;58.35;96005.06;8216303;28;20280;-85
2021/11/28 17:00:56;;;;;;;12.00;10.30;;;;;;;6.44;59.07;96016.84;8216016;28;20305;-85
2021/11/28 17:05:03;;;;;;;12.13;9.80;;;;;;;6.57;58.58;96008.41;8214672;28;20238;-84
2021/11/28 17:09:06;;;;;;;13.57;10.93;;;;;;;6.57;58.21;96013.56;8217473;28;20628;-85
2021/11/28 17:13:13;;;;;;;11.57;10.37;;;;;;;6.60;58.35;96015.91;8215470;28;20218;-84
2021/11/28 17:17:16;;;;;;;14.73;13.20;;;;;;;6.57;58.35;96019.50;8215095;28;20238;-84
2021/11/28 17:21:20;;;;;;;16.00;13.70;;;;;;;6.57;58.98;96019.50;8216809;28;20234;-84
2021/11/28 17:25:24;;;;;;;15.27;12.47;;;;;;;6.52;58.38;96026.66;8217016;28;20250;-85
2021/11/28 17:29:27;;;;;;;13.10;11.80;;;;;;;6.49;58.96;96029.41;8217062;28;20235;-85
2021/11/28 17:33:30;;;;;;;11.30;10.30;;;;;;;6.53;59.01;96028.34;8217254;28;20603;-85
2021/11/28 17:37:37;;;;;;;14.23;11.93;;;;;;;6.49;58.75;96029.41;8217661;28;20231;-85
2021/11/28 17:41:40;;;;;;;12.20;11.00;;;;;;;6.49;59.10;96026.00;8223586;28;20245;-85
2021/11/28 17:45:44;;;;;;;25.07;17.30;;;;;;;6.45;59.09;96039.06;8222539;28;20238;-85
2021/11/28 17:49:47;;;;;;;58.37;35.50;;;;;;;6.39;58.79;96036.84;8223080;28;20289;-85
2021/11/28 17:53:52;;;;;;;17.60;13.47;;;;;;;6.37;59.02;96036.09;8222701;28;20242;-85
2021/11/28 17:57:56;;;;;;;16.30;13.57;;;;;;;6.45;59.12;96039.06;8222453;28;20353;-85
2021/11/28 18:01:59;;;;;;;20.73;16.10;;;;;;;6.50;59.15;96041.34;8208557;28;20243;-85
2021/11/28 18:06:05;;;;;;;19.23;16.90;;;;;;;6.44;59.11;96045.13;8190327;28;20254;-84
2021/11/28 18:10:10;;;;;;;26.67;19.87;;;;;;;6.50;58.78;96048.25;8221616;28;20234;-85
2021/11/28 18:14:13;;;;;;;25.00;20.97;;;;;;;6.50;58.71;96054.22;8220427;28;20234;-91
2021/11/28 18:18:17;;;;;;;21.63;19.10;;;;;;;6.46;59.04;96050.19;8221309;28;20332;-86
2021/11/28 18:22:20;;;;;;;23.63;18.53;;;;;;;6.51;58.93;96045.59;8222956;28;20262;-85
2021/11/28 18:26:30;;;;;;;23.10;19.27;;;;;;;6.51;59.16;96061.03;8247632;28;20404;-85
2021/11/28 18:30:34;;;;;;;22.10;19.53;;;;;;;6.53;59.03;96050.63;8256753;28;20248;-89
2021/11/28 18:34:37;;;;;;;30.50;24.23;;;;;;;6.58;59.08;96054.59;8256120;28;20230;-87
2021/11/28 18:38:40;;;;;;;19.90;17.03;;;;;;;6.49;58.57;96057.69;8269078;28;20249;-83
2021/11/28 18:42:45;;;;;;;23.70;19.03;;;;;;;6.53;58.38;96055.78;8253119;28;20313;-82
2021/11/28 18:46:48;;;;;;;16.73;14.43;;;;;;;6.53;58.36;96053.19;8252502;28;20242;-84
2021/11/28 18:50:51;;;;;;;17.93;11.27;;;;;;;7.73;75.79;96058.78;8251693;28;20429;-87
2021/11/28 18:54:54;;;;;;;17.43;14.70;;;;;;;7.11;57.85;96054.88;8244122;28;20238;-84
2021/11/28 18:58:59;;;;;;;14.83;13.30;;;;;;;6.87;57.30;96062.31;8220424;28;20234;-83
2021/11/28 19:03:03;;;;;;;14.67;12.90;;;;;;;6.76;57.95;96065.56;8232289;28;20234;-83
2021/11/28 19:07:06;;;;;;;16.00;13.80;;;;;;;6.62;57.98;96053.47;8214008;28;20317;-83
2021/11/28 19:11:11;;;;;;;16.13;14.17;;;;;;;6.55;58.17;96059.06;8236991;28;20245;-83